Aérodrome :
LOGIN :

S'inscrire | Disclaimer

   EN    FR    IT 

 










Légende :    VFR   VFR Marginal   IFR   IFR Intensif   IFR Très Intensif
Visi : 
Plafond : 
>= 8 km
>= 3000ft
5 à 8 km
1000 à 3000 ft
1500m à 5 km
500 à 1000 ft
800 à 1500m
200 à 500 ft
< 800m
< 200 ft
Symboles :   Orages  Brouillard  Fortes neiges  Fortes précipitations  Vent > 20 kt
SIGMETs :   Divers  Orages  Givrage  Turbulence  Onde Orograph.  Cendres Volcan.







- Altitude de l'aérodrome : 289 ft
- Code IATA : ZAD


LDZD - Zadar

DERNIER METAR :
  • 230430Z 10004KT 070V130 9999 BKN070 01/00 Q0999 NOSIG

METARs EXPIRÉS :
  • 230400Z VRB01KT 9999 SCT070 02/01 Q0999 NOSIG
  • 230330Z VRB02KT 9999 FEW020 BKN070 02/01 Q0999 NOSIG
  • 230300Z VRB02KT 9999 BKN018 OVC070 02/01 Q0999 NOSIG
  • 230230Z 00000KT 9999 OVC018 03/02 Q0999
  • 230200Z VRB02KT 9999 OVC018 03/01 Q0999

TAF TAF LDZD
Valide du 23 à 00h jusqu'au 24 à 00h UTC


222325Z 2300/2400 07012KT 9999 FEW030 BKN040 TX07/2313Z TN00/2306Z
TEMPO 2300/2306 VRB02KT 4000 RA BKN012 BKN030
PROB30
TEMPO 2300/2306 3000 TSRA FEW020CB BKN030
BECMG 2304/2306 12009KT
BECMG 2320/2322 07012KT
Pas de NOTAMs connus pour ce terrain.



MET'MAP, la Météo Aéronautique d'un coup d'oeil ! - Copyright ORBIFLY Décembre 2007 - Disclaimer

ORBIFLY MET'MAP TEAM :

Programmation & Développement : Alexandra Zaïnal
Conception & Développement : Baudouin d'Aumeries
Co-Programmation & Développement : Marc-Olivier Méhu
Soutien technique & logistique : Manuel Goepfert

Contact : metmap@orbifly.com




SOURCES & CREDITS :

   NOAA